Time;durP1;ratioP1;P1;durP2;ratioP2;P2;SDS_P1;SDS_P2;PMS_P1;PMS_P2;Temp;Humidity;BMP_temperature;BMP_pressure;BME280_temperature;BME280_humidity;BME280_pressure;Samples;Min_cycle;Max_cycle;Signal;HPM_P1;HPM_P2
2021/08/31 00:00:39;;;;;;;4.70;3.50;;;;;;;;;;5068458;28;20110;-44
2021/08/31 00:03:04;;;;;;;7.95;2.35;;;;;;;;;;5070991;28;20024;-43
2021/08/31 00:05:29;;;;;;;8.68;3.17;;;;;;;;;;5071223;28;20048;-47
2021/08/31 00:07:54;;;;;;;5.07;3.28;;;;;;;;;;5071787;28;20025;-42
2021/08/31 00:10:20;;;;;;;10.82;3.28;;;;;;;;;;5075100;28;20111;-43
2021/08/31 00:12:45;;;;;;;7.75;2.63;;;;;;;;;;5074258;28;20025;-43
2021/08/31 00:15:11;;;;;;;14.20;4.88;;;;;;;;;;5091890;28;20387;-44
2021/08/31 00:17:36;;;;;;;4.93;3.38;;;;;;;;;;5079682;28;20631;-42
2021/08/31 00:20:02;;;;;;;4.25;2.70;;;;;;;;;;5077214;28;20062;-43
2021/08/31 00:22:28;;;;;;;5.57;3.75;;;;;;;;;;5076879;28;20115;-43
2021/08/31 00:24:53;;;;;;;5.15;4.07;;;;;;;;;;5077208;28;20104;-43
2021/08/31 00:27:19;;;;;;;8.38;3.50;;;;;;;;;;5075373;28;20027;-43
2021/08/31 00:29:44;;;;;;;4.05;2.60;;;;;;;;;;5076314;28;20083;-43
2021/08/31 00:32:09;;;;;;;4.32;2.97;;;;;;;;;;5073398;28;20480;-43
2021/08/31 00:34:34;;;;;;;5.93;3.78;;;;;;;;;;5076902;28;20020;-42
2021/08/31 00:37:00;;;;;;;5.13;3.97;;;;;;;;;;5077083;28;20089;-44
2021/08/31 00:39:25;;;;;;;3.83;2.90;;;;;;;;;;5079525;28;20517;-45
2021/08/31 00:41:51;;;;;;;6.78;3.55;;;;;;;;;;5076577;28;20479;-45
2021/08/31 00:44:23;;;;;;;4.10;3.17;;;;;;;;;;5074419;28;20433;-48
2021/08/31 00:46:49;;;;;;;7.15;3.78;;;;;;;;;;5072660;28;20017;-45
2021/08/31 00:49:14;;;;;;;3.25;2.85;;;;;;;;;;5077409;28;20022;-45
2021/08/31 00:51:39;;;;;;;5.18;3.35;;;;;;;;;;5075422;28;20097;-47
2021/08/31 00:54:05;;;;;;;3.17;2.88;;;;;;;;;;5077697;28;20051;-46
2021/08/31 00:56:30;;;;;;;7.07;2.67;;;;;;;;;;5078989;28;20107;-48
2021/08/31 00:58:56;;;;;;;4.40;3.72;;;;;;;;;;5075091;28;20054;-49
2021/08/31 01:01:21;;;;;;;17.08;5.43;;;;;;;;;;5074778;28;20111;-45
2021/08/31 01:03:46;;;;;;;10.18;4.00;;;;;;;;;;5074180;28;20021;-41
2021/08/31 01:06:12;;;;;;;9.48;5.30;;;;;;;;;;5076370;28;20067;-42
2021/08/31 01:08:37;;;;;;;5.60;3.40;;;;;;;;;;5079001;28;20684;-41
2021/08/31 01:11:03;;;;;;;5.85;4.82;;;;;;;;;;5074812;28;20024;-43
2021/08/31 01:13:32;;;;;;;6.40;3.60;;;;;;;;;;5077715;28;20060;-42
2021/08/31 01:15:58;;;;;;;4.72;3.05;;;;;;;;;;5074588;28;20012;-42
2021/08/31 01:18:23;;;;;;;7.05;4.68;;;;;;;;;;5074827;28;20077;-46
2021/08/31 01:20:50;;;;;;;6.03;4.50;;;;;;;;;;5077356;28;20031;-42
2021/08/31 01:23:15;;;;;;;3.25;2.65;;;;;;;;;;5074801;28;20032;-43
2021/08/31 01:25:41;;;;;;;4.38;3.40;;;;;;;;;;5078041;28;20027;-44
2021/08/31 01:28:06;;;;;;;8.57;5.15;;;;;;;;;;5078202;28;20027;-43
2021/08/31 01:30:32;;;;;;;3.63;3.28;;;;;;;;;;5072366;28;20115;-44
2021/08/31 01:32:57;;;;;;;4.43;3.38;;;;;;;;;;5075808;28;20044;-43
2021/08/31 01:35:22;;;;;;;4.15;3.38;;;;;;;;;;5077447;28;20389;-43
2021/08/31 01:37:47;;;;;;;6.38;4.15;;;;;;;;;;5077495;28;20024;-42
2021/08/31 01:40:13;;;;;;;5.18;3.55;;;;;;;;;;5077501;28;20687;-42
2021/08/31 01:42:38;;;;;;;6.80;4.15;;;;;;;;;;5075547;28;20025;-42
2021/08/31 01:45:04;;;;;;;8.65;3.53;;;;;;;;;;5075259;28;20039;-43
2021/08/31 01:47:29;;;;;;;8.38;5.03;;;;;;;;;;5073571;28;20078;-42
2021/08/31 01:49:54;;;;;;;5.55;4.30;;;;;;;;;;5073178;28;20497;-42
2021/08/31 01:52:20;;;;;;;8.98;4.15;;;;;;;;;;5075683;28;20020;-43
2021/08/31 01:54:45;;;;;;;4.68;4.22;;;;;;;;;;5081112;28;20039;-43
2021/08/31 01:57:10;;;;;;;10.93;3.55;;;;;;;;;;5073464;28;20383;-43
2021/08/31 01:59:36;;;;;;;9.05;3.70;;;;;;;;;;5071570;28;20061;-43
2021/08/31 02:02:01;;;;;;;8.15;3.88;;;;;;;;;;5074365;28;20020;-43
2021/08/31 02:04:26;;;;;;;3.45;2.90;;;;;;;;;;5075308;28;20396;-42
2021/08/31 02:06:51;;;;;;;8.75;4.28;;;;;;;;;;5071475;28;20430;-42
2021/08/31 02:09:17;;;;;;;7.30;5.03;;;;;;;;;;5073866;28;20021;-44
2021/08/31 02:11:42;;;;;;;5.00;4.03;;;;;;;;;;5073248;28;20022;-49
2021/08/31 02:14:07;;;;;;;14.15;4.32;;;;;;;;;;5071828;28;20028;-45
2021/08/31 02:16:33;;;;;;;8.77;5.28;;;;;;;;;;5073958;28;20024;-45
2021/08/31 02:18:58;;;;;;;5.22;3.25;;;;;;;;;;5077374;28;20048;-45
2021/08/31 02:21:24;;;;;;;4.50;4.10;;;;;;;;;;5073250;28;20502;-43
2021/08/31 02:23:49;;;;;;;21.17;4.10;;;;;;;;;;5075696;28;20016;-47
2021/08/31 02:26:14;;;;;;;5.35;3.55;;;;;;;;;;5078271;28;20016;-43
2021/08/31 02:28:39;;;;;;;8.07;4.15;;;;;;;;;;5072197;28;20025;-44
2021/08/31 02:31:05;;;;;;;11.73;3.90;;;;;;;;;;5077966;28;20020;-43
2021/08/31 02:33:30;;;;;;;10.05;4.28;;;;;;;;;;5077718;28;20123;-43
2021/08/31 02:35:55;;;;;;;8.80;5.70;;;;;;;;;;5078404;28;20081;-42
2021/08/31 02:38:21;;;;;;;4.95;3.42;;;;;;;;;;5073080;28;20415;-42
2021/08/31 02:40:46;;;;;;;8.02;4.55;;;;;;;;;;5073632;28;20060;-43
2021/08/31 02:43:11;;;;;;;5.05;3.72;;;;;;;;;;5078707;28;20020;-43
2021/08/31 02:45:37;;;;;;;9.70;3.42;;;;;;;;;;5074589;28;20387;-42
2021/08/31 02:48:02;;;;;;;4.43;3.05;;;;;;;;;;5079474;28;20445;-45
2021/08/31 02:50:27;;;;;;;5.55;4.93;;;;;;;;;;5075713;28;20036;-43
2021/08/31 02:52:53;;;;;;;6.70;4.65;;;;;;;;;;5079757;28;20099;-42
2021/08/31 02:55:18;;;;;;;13.57;7.10;;;;;;;;;;5071070;28;20028;-43
2021/08/31 02:57:43;;;;;;;9.10;6.05;;;;;;;;;;5069367;28;20055;-43
2021/08/31 03:00:09;;;;;;;14.05;4.72;;;;;;;;;;5072179;28;20649;-43
2021/08/31 03:02:35;;;;;;;5.70;3.83;;;;;;;;;;5075128;28;20016;-42
2021/08/31 03:05:00;;;;;;;6.25;4.90;;;;;;;;;;5085414;28;20044;-42
2021/08/31 03:07:25;;;;;;;4.28;3.55;;;;;;;;;;5075906;28;21000;-42
2021/08/31 03:09:50;;;;;;;8.77;5.03;;;;;;;;;;5074501;28;20494;-42
2021/08/31 03:12:16;;;;;;;5.25;4.25;;;;;;;;;;5076512;28;20514;-44
2021/08/31 03:14:41;;;;;;;6.55;4.57;;;;;;;;;;5073211;28;20051;-43
2021/08/31 03:17:07;;;;;;;10.85;5.82;;;;;;;;;;5071204;28;20054;-44
2021/08/31 03:19:32;;;;;;;6.93;4.57;;;;;;;;;;5070698;28;20154;-43
2021/08/31 03:21:58;;;;;;;6.38;4.05;;;;;;;;;;5070053;28;20024;-47
2021/08/31 03:24:24;;;;;;;8.75;4.82;;;;;;;;;;5072899;28;20024;-48
2021/08/31 03:26:50;;;;;;;7.97;7.18;;;;;;;;;;5074686;28;20592;-43
2021/08/31 03:29:15;;;;;;;10.88;5.30;;;;;;;;;;5070962;28;20071;-42
2021/08/31 03:31:40;;;;;;;7.20;5.35;;;;;;;;;;5072533;28;20025;-44
2021/08/31 03:34:06;;;;;;;11.68;5.80;;;;;;;;;;5074119;28;20028;-45
2021/08/31 03:36:32;;;;;;;8.98;5.60;;;;;;;;;;5072874;28;20415;-45
2021/08/31 03:38:57;;;;;;;7.38;5.22;;;;;;;;;;5069140;28;20032;-43
2021/08/31 03:41:22;;;;;;;6.30;5.03;;;;;;;;;;5075523;28;20082;-44
2021/08/31 03:43:48;;;;;;;7.82;4.68;;;;;;;;;;5071452;28;20467;-43
2021/08/31 03:46:13;;;;;;;11.90;6.32;;;;;;;;;;5067575;28;20024;-43
2021/08/31 03:48:38;;;;;;;16.13;5.97;;;;;;;;;;5071773;28;20012;-44
2021/08/31 03:51:04;;;;;;;7.93;5.80;;;;;;;;;;5070371;28;20028;-46
2021/08/31 03:53:29;;;;;;;7.40;4.57;;;;;;;;;;5070026;28;20028;-50
2021/08/31 03:55:55;;;;;;;8.13;4.90;;;;;;;;;;5070695;28;20035;-48
2021/08/31 03:58:20;;;;;;;4.35;4.00;;;;;;;;;;5071378;28;20035;-46
2021/08/31 04:00:45;;;;;;;6.95;4.68;;;;;;;;;;5075104;28;20073;-47
2021/08/31 04:03:11;;;;;;;4.63;3.60;;;;;;;;;;5074748;28;20016;-50
2021/08/31 04:05:36;;;;;;;18.80;5.53;;;;;;;;;;5030090;28;1232125;-50
2021/08/31 04:08:01;;;;;;;5.95;3.97;;;;;;;;;;5074260;28;20040;-46
2021/08/31 04:10:27;;;;;;;7.22;3.08;;;;;;;;;;5073475;28;20472;-49
2021/08/31 04:12:52;;;;;;;7.68;5.18;;;;;;;;;;5072727;28;20025;-48
2021/08/31 04:15:17;;;;;;;5.50;3.80;;;;;;;;;;5070707;28;20052;-43
2021/08/31 04:17:42;;;;;;;5.22;3.28;;;;;;;;;;5070569;28;20077;-47
2021/08/31 04:20:08;;;;;;;5.38;4.50;;;;;;;;;;5068362;28;20024;-44
2021/08/31 04:22:33;;;;;;;5.60;4.07;;;;;;;;;;5073208;28;20048;-49
2021/08/31 04:24:59;;;;;;;12.40;4.60;;;;;;;;;;5075051;28;20395;-47
2021/08/31 04:27:25;;;;;;;3.75;2.88;;;;;;;;;;5075045;28;20019;-47
2021/08/31 04:29:50;;;;;;;48.90;44.50;;;;;;;;;;5070729;28;20382;-45
2021/08/31 04:32:15;;;;;;;7.07;5.38;;;;;;;;;;5072246;28;20392;-47
2021/08/31 04:34:41;;;;;;;8.32;5.30;;;;;;;;;;5076123;28;20505;-44
2021/08/31 04:37:06;;;;;;;8.30;4.55;;;;;;;;;;5070469;28;20075;-43
2021/08/31 04:39:32;;;;;;;7.30;5.22;;;;;;;;;;5075075;28;20020;-45
2021/08/31 04:42:02;;;;;;;4.35;3.35;;;;;;;;;;5069997;28;20028;-42
2021/08/31 04:44:28;;;;;;;4.53;3.13;;;;;;;;;;5072699;28;20553;-43
2021/08/31 04:46:54;;;;;;;4.38;3.28;;;;;;;;;;5074946;28;20021;-42
2021/08/31 04:49:19;;;;;;;4.78;4.03;;;;;;;;;;5070512;28;20023;-42
2021/08/31 04:51:44;;;;;;;3.67;2.85;;;;;;;;;;5072084;28;20115;-41
2021/08/31 04:54:09;;;;;;;15.93;4.68;;;;;;;;;;5071936;28;20475;-41
2021/08/31 04:56:35;;;;;;;5.05;3.90;;;;;;;;;;5069783;28;20024;-43
2021/08/31 04:59:00;;;;;;;8.65;4.15;;;;;;;;;;5072816;28;20055;-44
2021/08/31 05:01:25;;;;;;;5.28;2.95;;;;;;;;;;5071160;28;20458;-43
2021/08/31 05:03:50;;;;;;;11.52;2.65;;;;;;;;;;5080430;28;20028;-43
2021/08/31 05:06:16;;;;;;;8.38;4.00;;;;;;;;;;5080237;28;20044;-44
2021/08/31 05:08:41;;;;;;;10.02;5.50;;;;;;;;;;5077397;28;20028;-45
2021/08/31 05:11:06;;;;;;;22.30;4.70;;;;;;;;;;5074667;28;20143;-44
2021/08/31 05:13:35;;;;;;;5.25;3.65;;;;;;;;;;5077530;28;20019;-45
2021/08/31 05:16:02;;;;;;;6.88;3.78;;;;;;;;;;5076913;28;20024;-45
2021/08/31 05:18:28;;;;;;;7.70;4.68;;;;;;;;;;5077592;28;20021;-44
2021/08/31 05:20:54;;;;;;;6.47;5.68;;;;;;;;;;5079862;28;20029;-42
2021/08/31 05:23:19;;;;;;;8.25;4.93;;;;;;;;;;5075983;28;20078;-44
2021/08/31 05:25:44;;;;;;;19.02;6.00;;;;;;;;;;5076000;28;20522;-44
2021/08/31 05:28:09;;;;;;;6.97;4.97;;;;;;;;;;5078078;28;20027;-47
2021/08/31 05:30:35;;;;;;;10.25;6.20;;;;;;;;;;5074605;28;20017;-44
2021/08/31 05:33:00;;;;;;;7.80;5.50;;;;;;;;;;5076392;28;20466;-46
2021/08/31 05:35:25;;;;;;;8.30;6.93;;;;;;;;;;5073686;28;20122;-47
2021/08/31 05:37:51;;;;;;;10.13;5.93;;;;;;;;;;5075539;28;20073;-45
2021/08/31 05:40:16;;;;;;;8.20;6.07;;;;;;;;;;5074436;28;20448;-43
2021/08/31 05:42:42;;;;;;;11.52;4.90;;;;;;;;;;5076978;28;20036;-45
2021/08/31 05:45:08;;;;;;;10.55;4.88;;;;;;;;;;5074791;28;20017;-43
2021/08/31 05:47:33;;;;;;;7.00;5.30;;;;;;;;;;5075056;28;20036;-45
2021/08/31 05:49:58;;;;;;;3.85;3.38;;;;;;;;;;5075962;28;20016;-44
2021/08/31 05:52:24;;;;;;;4.78;3.83;;;;;;;;;;5076313;28;20028;-42
2021/08/31 05:54:49;;;;;;;7.32;5.20;;;;;;;;;;5077211;28;20020;-42
2021/08/31 05:57:14;;;;;;;10.02;4.32;;;;;;;;;;5077931;28;20016;-43
2021/08/31 05:59:40;;;;;;;8.05;6.43;;;;;;;;;;5074408;28;20020;-43
2021/08/31 06:02:11;;;;;;;6.85;3.55;;;;;;;;;;5075749;28;20176;-43
2021/08/31 06:04:37;;;;;;;4.03;3.47;;;;;;;;;;5089732;28;20055;-46
2021/08/31 06:07:06;;;;;;;4.28;3.83;;;;;;;;;;5074357;28;20016;-44
2021/08/31 06:09:31;;;;;;;8.98;5.47;;;;;;;;;;5076108;28;20043;-49
2021/08/31 06:11:58;;;;;;;5.88;4.53;;;;;;;;;;5072743;28;20023;-44
2021/08/31 06:14:23;;;;;;;15.32;5.53;;;;;;;;;;5071041;28;20016;-45
2021/08/31 06:16:49;;;;;;;7.47;5.22;;;;;;;;;;5066192;28;20112;-44
2021/08/31 06:19:14;;;;;;;21.17;19.38;;;;;;;;;;5075429;28;20190;-44
2021/08/31 06:21:40;;;;;;;8.88;7.80;;;;;;;;;;5072977;28;20028;-45
2021/08/31 06:24:05;;;;;;;11.05;7.60;;;;;;;;;;5078245;28;20024;-47
2021/08/31 06:26:30;;;;;;;9.52;8.60;;;;;;;;;;5075211;28;20553;-46
2021/08/31 06:28:56;;;;;;;10.82;8.55;;;;;;;;;;5071845;28;20027;-44
2021/08/31 06:31:21;;;;;;;11.80;9.02;;;;;;;;;;5072115;28;20115;-44
2021/08/31 06:33:46;;;;;;;28.50;8.57;;;;;;;;;;5067424;28;20027;-46
2021/08/31 06:36:13;;;;;;;7.35;6.32;;;;;;;;;;5071112;28;20054;-45
2021/08/31 06:38:38;;;;;;;11.65;7.22;;;;;;;;;;5073817;28;20036;-46
2021/08/31 06:41:06;;;;;;;20.23;15.48;;;;;;;;;;5073794;28;20106;-44
2021/08/31 06:43:31;;;;;;;15.63;11.68;;;;;;;;;;5072486;28;20032;-44
2021/08/31 06:45:56;;;;;;;15.35;11.05;;;;;;;;;;5074320;28;20019;-44
2021/08/31 06:48:22;;;;;;;14.75;8.73;;;;;;;;;;5077321;28;20527;-45
2021/08/31 06:50:47;;;;;;;12.60;8.25;;;;;;;;;;5071532;28;20133;-54
2021/08/31 06:53:12;;;;;;;29.08;8.95;;;;;;;;;;5068287;28;20103;-46
2021/08/31 06:55:40;;;;;;;8.25;7.38;;;;;;;;;;5074604;28;20491;-47
2021/08/31 06:58:06;;;;;;;11.60;10.32;;;;;;;;;;5073035;28;20024;-47
2021/08/31 07:00:31;;;;;;;17.17;8.23;;;;;;;;;;5074527;28;20030;-47
2021/08/31 07:02:56;;;;;;;7.35;6.65;;;;;;;;;;5071942;28;20500;-47
2021/08/31 07:05:22;;;;;;;6.82;4.95;;;;;;;;;;5074294;28;20044;-48
2021/08/31 07:07:47;;;;;;;14.15;11.10;;;;;;;;;;5075608;28;20249;-47
2021/08/31 07:10:12;;;;;;;34.13;30.92;;;;;;;;;;5072180;28;20088;-42
2021/08/31 07:12:38;;;;;;;28.75;25.90;;;;;;;;;;5074655;28;20020;-43
2021/08/31 07:15:04;;;;;;;16.65;15.05;;;;;;;;;;5073104;28;20085;-46
2021/08/31 07:17:29;;;;;;;17.08;15.23;;;;;;;;;;5077837;28;20028;-48
2021/08/31 07:19:54;;;;;;;22.52;20.42;;;;;;;;;;5075194;28;20028;-43
2021/08/31 07:22:20;;;;;;;21.33;16.15;;;;;;;;;;5071707;28;20104;-34
2021/08/31 07:24:45;;;;;;;10.60;9.52;;;;;;;;;;5072329;28;20070;-44
2021/08/31 07:27:11;;;;;;;8.68;6.18;;;;;;;;;;5074311;28;20109;-41
2021/08/31 07:29:37;;;;;;;13.30;5.97;;;;;;;;;;5075763;28;20547;-42
2021/08/31 07:32:02;;;;;;;7.50;3.90;;;;;;;;;;5065420;28;20454;-41
2021/08/31 07:34:28;;;;;;;4.47;3.45;;;;;;;;;;5071411;28;20020;-43
2021/08/31 07:36:54;;;;;;;14.15;6.50;;;;;;;;;;5076210;28;20076;-44
2021/08/31 07:39:20;;;;;;;32.28;22.92;;;;;;;;;;5073063;28;20140;-41
2021/08/31 07:41:45;;;;;;;33.33;26.52;;;;;;;;;;5072677;28;20040;-46
2021/08/31 07:44:11;;;;;;;26.80;23.15;;;;;;;;;;5076192;28;20019;-48
2021/08/31 07:46:36;;;;;;;20.45;18.27;;;;;;;;;;5072935;28;20558;-46
2021/08/31 07:49:01;;;;;;;16.65;15.10;;;;;;;;;;5074630;28;20553;-45
2021/08/31 07:51:27;;;;;;;12.13;10.88;;;;;;;;;;5073632;28;20008;-48
2021/08/31 07:53:52;;;;;;;16.23;10.65;;;;;;;;;;5070144;28;20556;-51
2021/08/31 07:56:17;;;;;;;13.80;9.15;;;;;;;;;;5071023;28;20103;-48
2021/08/31 07:58:43;;;;;;;33.17;24.33;;;;;;;;;;5076121;28;20012;-44
2021/08/31 08:01:08;;;;;;;33.03;26.90;;;;;;;;;;5076384;28;20097;-50
2021/08/31 08:03:33;;;;;;;17.13;15.27;;;;;;;;;;5068846;28;20476;-49
2021/08/31 08:05:59;;;;;;;11.80;10.82;;;;;;;;;;5077087;28;20090;-49
2021/08/31 08:08:24;;;;;;;13.45;11.75;;;;;;;;;;5069549;28;20013;-38
2021/08/31 08:10:51;;;;;;;11.05;9.77;;;;;;;;;;5070706;28;20490;-48
2021/08/31 08:13:16;;;;;;;11.85;10.07;;;;;;;;;;5072753;28;20093;-51
2021/08/31 08:15:42;;;;;;;15.80;8.60;;;;;;;;;;5069198;28;20678;-48
2021/08/31 08:18:07;;;;;;;7.30;5.32;;;;;;;;;;5072430;28;20089;-48
2021/08/31 08:20:33;;;;;;;8.45;5.97;;;;;;;;;;5073395;28;20025;-47
2021/08/31 08:22:58;;;;;;;3.88;3.20;;;;;;;;;;5071292;28;20415;-44
2021/08/31 08:25:23;;;;;;;7.05;2.58;;;;;;;;;;5073286;28;20463;-48
2021/08/31 08:27:49;;;;;;;5.05;3.20;;;;;;;;;;5073587;28;20300;-46
2021/08/31 08:30:14;;;;;;;5.40;4.10;;;;;;;;;;5071223;28;20036;-45
2021/08/31 08:32:40;;;;;;;5.57;2.58;;;;;;;;;;5065048;28;20020;-45
2021/08/31 08:35:07;;;;;;;6.53;4.25;;;;;;;;;;5072591;28;20084;-44
2021/08/31 08:37:33;;;;;;;5.28;4.65;;;;;;;;;;5073997;28;20104;-44
2021/08/31 08:39:58;;;;;;;5.95;4.10;;;;;;;;;;5075674;28;20017;-44
2021/08/31 08:42:24;;;;;;;9.60;3.42;;;;;;;;;;5076063;28;20028;-46
2021/08/31 08:44:49;;;;;;;5.22;3.80;;;;;;;;;;5080705;28;20086;-44
2021/08/31 08:47:14;;;;;;;3.90;2.63;;;;;;;;;;5077195;28;20021;-44
2021/08/31 08:49:43;;;;;;;9.93;3.05;;;;;;;;;;5076219;28;20020;-46
2021/08/31 08:52:08;;;;;;;6.40;2.47;;;;;;;;;;5078865;28;20090;-47
2021/08/31 08:54:34;;;;;;;7.55;3.70;;;;;;;;;;5078277;28;20020;-46
2021/08/31 08:56:59;;;;;;;4.07;2.35;;;;;;;;;;5076348;28;20146;-44
2021/08/31 08:59:24;;;;;;;4.32;2.20;;;;;;;;;;5075446;28;20031;-48
2021/08/31 09:01:51;;;;;;;5.55;2.40;;;;;;;;;;5073438;28;20024;-47
2021/08/31 09:04:17;;;;;;;4.28;2.85;;;;;;;;;;5078867;28;20020;-48
2021/08/31 09:06:46;;;;;;;11.18;2.40;;;;;;;;;;5077118;28;20674;-50
2021/08/31 09:09:13;;;;;;;3.65;2.25;;;;;;;;;;5077116;28;20047;-44
2021/08/31 09:11:39;;;;;;;5.63;3.95;;;;;;;;;;5074875;28;20043;-48
2021/08/31 09:14:22;;;;;;;7.88;5.55;;;;;;;;;;5075765;28;20017;-51
2021/08/31 09:16:54;;;;;;;3.72;2.80;;;;;;;;;;5076760;28;20471;-49
2021/08/31 09:19:35;;;;;;;5.50;2.58;;;;;;;;;;5075031;28;20020;-51
2021/08/31 09:22:19;;;;;;;6.22;3.08;;;;;;;;;;5074795;28;20031;-47
2021/08/31 09:24:58;;;;;;;9.23;1.67;;;;;;;;;;5076226;28;20072;-49
2021/08/31 09:27:31;;;;;;;4.25;3.33;;;;;;;;;;5076266;28;20904;-48
2021/08/31 09:30:12;;;;;;;4.68;2.70;;;;;;;;;;5077944;28;20072;-47
2021/08/31 09:32:38;;;;;;;5.63;2.80;;;;;;;;;;5076172;28;20052;-44
2021/08/31 09:35:13;;;;;;;7.65;2.92;;;;;;;;;;5075454;28;20222;-47
2021/08/31 09:37:41;;;;;;;4.97;2.63;;;;;;;;;;5078979;28;20024;-46
2021/08/31 09:40:08;;;;;;;7.88;2.90;;;;;;;;;;5074170;28;20028;-43
2021/08/31 09:42:34;;;;;;;8.80;3.75;;;;;;;;;;5077559;28;20016;-46
2021/08/31 09:45:03;;;;;;;4.35;2.70;;;;;;;;;;5077371;28;20028;-42
2021/08/31 09:47:32;;;;;;;6.70;3.60;;;;;;;;;;5075316;28;20056;-46
2021/08/31 09:49:57;;;;;;;6.60;3.40;;;;;;;;;;5076098;28;20422;-45
2021/08/31 09:52:23;;;;;;;5.47;4.05;;;;;;;;;;5079443;28;20078;-54
2021/08/31 09:54:49;;;;;;;5.72;3.67;;;;;;;;;;5069422;28;20051;-42
2021/08/31 09:57:34;;;;;;;3.72;2.40;;;;;;;;;;5069571;28;20024;-43
2021/08/31 10:00:01;;;;;;;3.75;2.28;;;;;;;;;;5073990;28;20025;-42
2021/08/31 10:02:27;;;;;;;16.48;3.97;;;;;;;;;;5075370;28;20024;-47
2021/08/31 10:04:53;;;;;;;6.75;2.42;;;;;;;;;;5075420;28;20785;-46
2021/08/31 10:07:20;;;;;;;4.80;1.60;;;;;;;;;;5071041;28;20121;-45
2021/08/31 10:09:45;;;;;;;10.45;2.22;;;;;;;;;;5075348;28;20020;-48
2021/08/31 10:12:12;;;;;;;3.90;2.55;;;;;;;;;;5078345;28;20488;-44
2021/08/31 10:14:43;;;;;;;19.92;2.38;;;;;;;;;;5073283;28;20122;-40
2021/08/31 10:17:08;;;;;;;8.88;2.55;;;;;;;;;;5073289;28;20029;-48
2021/08/31 10:19:34;;;;;;;2.60;1.77;;;;;;;;;;5070559;28;20032;-42
2021/08/31 10:22:00;;;;;;;5.18;1.38;;;;;;;;;;5077990;28;20036;-45
2021/08/31 10:24:25;;;;;;;4.55;2.17;;;;;;;;;;5074037;28;20012;-46
2021/08/31 10:26:50;;;;;;;6.22;1.88;;;;;;;;;;5074582;28;20051;-44
2021/08/31 10:29:16;;;;;;;2.33;1.48;;;;;;;;;;5077504;28;20073;-42
2021/08/31 10:31:42;;;;;;;8.35;2.15;;;;;;;;;;5073649;28;20016;-42
2021/08/31 10:34:26;;;;;;;4.82;1.45;;;;;;;;;;5073174;28;20050;-45
2021/08/31 10:36:59;;;;;;;8.23;2.13;;;;;;;;;;5074045;28;20066;-45
2021/08/31 10:39:40;;;;;;;7.00;2.88;;;;;;;;;;5068373;28;20013;-49
2021/08/31 10:42:08;;;;;;;4.45;2.00;;;;;;;;;;5078557;28;20020;-45
2021/08/31 10:44:41;;;;;;;10.13;1.73;;;;;;;;;;5072219;28;20024;-57
2021/08/31 10:47:08;;;;;;;2.25;1.25;;;;;;;;;;5062553;28;20082;-56
2021/08/31 10:49:52;;;;;;;5.82;1.60;;;;;;;;;;5076378;28;20054;-44
2021/08/31 10:52:31;;;;;;;1.13;0.75;;;;;;;;;;5074478;28;20031;-49
2021/08/31 10:54:56;;;;;;;1.02;0.82;;;;;;;;;;5076897;28;20102;-46
2021/08/31 10:57:36;;;;;;;3.83;2.03;;;;;;;;;;5072928;28;20056;-54
2021/08/31 11:00:02;;;;;;;;;;;;;;;;;;5072476;28;20484;-45
2021/08/31 11:02:59;;;;;;;9.05;2.88;;;;;;;;;;5072839;28;20005;-47
2021/08/31 11:05:25;;;;;;;2.58;1.83;;;;;;;;;;5068976;28;20044;-39
2021/08/31 11:08:11;;;;;;;2.33;1.55;;;;;;;;;;5074164;28;20016;-44
2021/08/31 11:10:38;;;;;;;1.33;0.50;;;;;;;;;;5074907;28;20025;-45
2021/08/31 11:13:09;;;;;;;1.58;1.05;;;;;;;;;;5070421;28;20077;-48
2021/08/31 11:15:35;;;;;;;13.32;2.38;;;;;;;;;;5069580;28;20029;-52
2021/08/31 11:18:00;;;;;;;1.33;0.98;;;;;;;;;;5074261;28;20116;-64
2021/08/31 11:20:27;;;;;;;2.70;1.63;;;;;;;;;;5070342;28;20028;-63
2021/08/31 11:23:11;;;;;;;5.65;1.95;;;;;;;;;;5070800;28;20113;-61
2021/08/31 11:25:38;;;;;;;2.10;1.15;;;;;;;;;;5074821;28;20121;-63
2021/08/31 11:28:05;;;;;;;3.10;1.05;;;;;;;;;;5074527;28;20011;-62
2021/08/31 11:30:47;;;;;;;1.50;0.85;;;;;;;;;;5094413;28;20492;-62
2021/08/31 11:33:17;;;;;;;9.73;1.35;;;;;;;;;;5069498;28;20107;-63
2021/08/31 11:35:43;;;;;;;4.03;1.65;;;;;;;;;;5070924;28;20104;-63
2021/08/31 11:38:08;;;;;;;3.10;1.58;;;;;;;;;;5066147;28;20020;-64
2021/08/31 11:40:34;;;;;;;5.80;2.13;;;;;;;;;;5070765;28;20507;-62
2021/08/31 11:42:59;;;;;;;3.65;1.67;;;;;;;;;;5072702;28;20028;-61
2021/08/31 11:45:35;;;;;;;1.45;0.85;;;;;;;;;;5072081;28;20452;-62
2021/08/31 11:48:01;;;;;;;1.98;1.13;;;;;;;;;;5073003;28;20111;-62
2021/08/31 11:50:26;;;;;;;2.70;1.40;;;;;;;;;;5078742;28;20101;-62
2021/08/31 11:52:51;;;;;;;1.88;1.33;;;;;;;;;;5075739;28;20548;-62
2021/08/31 11:55:27;;;;;;;2.97;1.05;;;;;;;;;;5070892;28;20449;-62
2021/08/31 11:58:02;;;;;;;1.90;0.95;;;;;;;;;;5069677;28;20053;-62
2021/08/31 12:00:38;;;;;;;2.92;1.88;;;;;;;;;;5077336;28;20032;-62
2021/08/31 12:03:16;;;;;;;3.33;1.55;;;;;;;;;;5067692;28;20082;-63
2021/08/31 12:05:42;;;;;;;6.28;2.25;;;;;;;;;;5072392;28;20097;-62
2021/08/31 12:08:07;;;;;;;2.08;1.27;;;;;;;;;;5075148;28;20012;-62
2021/08/31 12:10:32;;;;;;;3.78;1.75;;;;;;;;;;5076292;28;20024;-62
2021/08/31 12:12:58;;;;;;;2.25;1.30;;;;;;;;;;5073734;28;20047;-61
2021/08/31 12:15:25;;;;;;;6.03;2.10;;;;;;;;;;5080230;28;20024;-62
2021/08/31 12:17:59;;;;;;;3.75;2.30;;;;;;;;;;5070174;28;20066;-62
2021/08/31 12:20:25;;;;;;;10.02;2.67;;;;;;;;;;5074176;28;20107;-62
2021/08/31 12:22:51;;;;;;;2.33;1.40;;;;;;;;;;5078186;28;20471;-65
2021/08/31 12:25:18;;;;;;;8.65;2.33;;;;;;;;;;5077608;28;20020;-62
2021/08/31 12:27:48;;;;;;;4.60;2.38;;;;;;;;;;5078262;28;20021;-62
2021/08/31 12:30:16;;;;;;;3.17;1.88;;;;;;;;;;5082284;28;20024;-62
2021/08/31 12:32:41;;;;;;;4.68;4.13;;;;;;;;;;5079499;28;20028;-61
2021/08/31 12:35:28;;;;;;;5.45;2.63;;;;;;;;;;5077312;28;20039;-61
2021/08/31 12:38:03;;;;;;;5.45;2.20;;;;;;;;;;5077054;28;20032;-62
2021/08/31 12:40:29;;;;;;;1.38;0.90;;;;;;;;;;5078323;28;20016;-62
2021/08/31 12:43:01;;;;;;;18.40;16.42;;;;;;;;;;5078369;28;20428;-62
2021/08/31 12:45:27;;;;;;;4.28;2.60;;;;;;;;;;5081029;28;20013;-61
2021/08/31 12:47:54;;;;;;;7.50;2.08;;;;;;;;;;5075391;28;20020;-61
2021/08/31 12:50:20;;;;;;;2.10;1.33;;;;;;;;;;5076933;28;20491;-61
2021/08/31 12:52:55;;;;;;;3.25;1.75;;;;;;;;;;5078273;28;20063;-62
2021/08/31 12:55:21;;;;;;;2.25;1.42;;;;;;;;;;5072691;28;20139;-61
2021/08/31 12:57:46;;;;;;;3.08;1.50;;;;;;;;;;5078027;28;20259;-62
2021/08/31 13:00:22;;;;;;;2.30;1.35;;;;;;;;;;5076045;28;20064;-64
2021/08/31 13:02:51;;;;;;;3.45;1.38;;;;;;;;;;5078683;28;20020;-62
2021/08/31 13:05:17;;;;;;;7.40;3.03;;;;;;;;;;5076045;28;20516;-64
2021/08/31 13:07:43;;;;;;;2.72;1.70;;;;;;;;;;5075571;28;20445;-62
2021/08/31 13:10:08;;;;;;;2.65;1.73;;;;;;;;;;5076913;28;20512;-62
2021/08/31 13:12:33;;;;;;;2.55;1.15;;;;;;;;;;5075030;28;20021;-62
2021/08/31 13:14:58;;;;;;;2.35;1.52;;;;;;;;;;5075110;28;20523;-62
2021/08/31 13:17:26;;;;;;;6.28;2.60;;;;;;;;;;5075723;28;20685;-62
2021/08/31 13:19:51;;;;;;;3.13;2.22;;;;;;;;;;5080925;28;20029;-62
2021/08/31 13:22:19;;;;;;;18.90;7.22;;;;;;;;;;5073100;28;20079;-62
2021/08/31 13:24:44;;;;;;;3.50;1.48;;;;;;;;;;5074916;28;20358;-63
2021/08/31 13:27:11;;;;;;;3.17;2.30;;;;;;;;;;5076971;28;20491;-63
2021/08/31 13:29:36;;;;;;;5.28;2.25;;;;;;;;;;5072279;28;20051;-62
2021/08/31 13:32:02;;;;;;;2.40;1.80;;;;;;;;;;5074662;28;20055;-63
2021/08/31 13:34:27;;;;;;;3.67;2.00;;;;;;;;;;5073477;28;20077;-62
2021/08/31 13:36:52;;;;;;;3.42;1.17;;;;;;;;;;5072171;28;20146;-61
2021/08/31 13:39:18;;;;;;;3.13;1.60;;;;;;;;;;5072286;28;20115;-63
2021/08/31 13:41:43;;;;;;;2.53;1.38;;;;;;;;;;5077278;28;20315;-62
2021/08/31 13:44:09;;;;;;;4.80;2.60;;;;;;;;;;5075002;28;20047;-62
2021/08/31 13:46:34;;;;;;;3.08;1.25;;;;;;;;;;5071944;28;20023;-62
2021/08/31 13:49:00;;;;;;;4.53;2.25;;;;;;;;;;5075089;28;20019;-62
2021/08/31 13:51:25;;;;;;;1.88;1.27;;;;;;;;;;5074102;28;20024;-62
2021/08/31 13:53:51;;;;;;;2.80;2.00;;;;;;;;;;5069991;28;20391;-62
2021/08/31 13:56:16;;;;;;;3.55;3.20;;;;;;;;;;5072817;28;20029;-63
2021/08/31 13:58:42;;;;;;;1.75;1.65;;;;;;;;;;5074134;28;20017;-62
2021/08/31 14:01:08;;;;;;;1.77;1.30;;;;;;;;;;5077783;28;20027;-61
2021/08/31 14:03:33;;;;;;;3.65;1.52;;;;;;;;;;5073724;28;20028;-61
2021/08/31 14:05:59;;;;;;;7.40;2.38;;;;;;;;;;5074136;28;20051;-61
2021/08/31 14:08:25;;;;;;;2.17;1.50;;;;;;;;;;5073995;28;20019;-60
2021/08/31 14:10:50;;;;;;;4.20;1.67;;;;;;;;;;5076318;28;20666;-61
2021/08/31 14:13:15;;;;;;;3.38;1.98;;;;;;;;;;5070897;28;20027;-61
2021/08/31 14:15:41;;;;;;;5.97;2.05;;;;;;;;;;5073400;28;20039;-61
2021/08/31 14:18:06;;;;;;;4.53;2.50;;;;;;;;;;5072668;28;20483;-62
2021/08/31 14:20:32;;;;;;;6.68;2.20;;;;;;;;;;5077472;28;20055;-62
2021/08/31 14:22:58;;;;;;;5.72;1.42;;;;;;;;;;5080433;28;20032;-62
2021/08/31 14:25:23;;;;;;;5.15;1.73;;;;;;;;;;5076973;28;20491;-62
2021/08/31 14:27:49;;;;;;;3.78;2.25;;;;;;;;;;5077409;28;20153;-62
2021/08/31 14:30:14;;;;;;;2.38;1.52;;;;;;;;;;5074943;28;20015;-62
2021/08/31 14:32:40;;;;;;;1.88;1.27;;;;;;;;;;5074816;28;20024;-62
2021/08/31 14:35:06;;;;;;;2.10;1.52;;;;;;;;;;5070798;28;20028;-61